createdAt,value
2022-10-09T00:01:06.406Z,99082.81
2022-10-09T00:03:40.652Z,99088.31
2022-10-09T00:06:09.597Z,99090.41
2022-10-09T00:08:41.279Z,99101.22
2022-10-09T00:11:11.059Z,99091.63
2022-10-09T00:13:38.246Z,99098.66
2022-10-09T00:16:08.021Z,99089.81
2022-10-09T00:18:35.917Z,99097.72
2022-10-09T00:21:03.692Z,99095.06
2022-10-09T00:23:31.814Z,99094.28
2022-10-09T00:26:01.615Z,99088.13
2022-10-09T00:28:30.361Z,99092.47
2022-10-09T00:30:57.649Z,99091.63
2022-10-09T00:33:24.719Z,99095.25
2022-10-09T00:35:52.134Z,99095.13
2022-10-09T00:38:18.958Z,99096.09
2022-10-09T00:40:45.939Z,99097.91
2022-10-09T00:43:19.598Z,99094.38
2022-10-09T00:45:54.481Z,99103.31
2022-10-09T00:48:23.228Z,99108.81
2022-10-09T00:50:56.464Z,99107.28
2022-10-09T00:53:27.145Z,99107.28
2022-10-09T00:55:54.104Z,99107.38
2022-10-09T00:58:22.258Z,99110.13
2022-10-09T01:00:49.602Z,99104.16
2022-10-09T01:03:16.803Z,99114.84
2022-10-09T01:06:09.010Z,99115.97
2022-10-09T01:08:45.746Z,99120.38
2022-10-09T01:11:23.985Z,99124.22
2022-10-09T01:14:22.846Z,99125.47
2022-10-09T01:17:04.134Z,99122.69
2022-10-09T01:19:31.112Z,99122.03
2022-10-09T01:22:18.336Z,99129.31
2022-10-09T01:24:54.784Z,99131.31
2022-10-09T01:27:24.697Z,99134.81
2022-10-09T01:29:57.100Z,99134.13
2022-10-09T01:32:30.381Z,99136.22
2022-10-09T01:34:58.587Z,99139.06
2022-10-09T01:37:27.711Z,99139.91
2022-10-09T01:39:54.575Z,99138.19
2022-10-09T01:42:23.050Z,99139.91
2022-10-09T01:44:49.905Z,99135.44
2022-10-09T01:47:18.931Z,99139.81
2022-10-09T01:50:01.846Z,99130.50
2022-10-09T01:52:50.249Z,99142.25
2022-10-09T01:55:39.258Z,99134.53
2022-10-09T01:58:17.729Z,99141.91
2022-10-09T02:01:07.688Z,99145.78
2022-10-09T02:03:39.106Z,99147.56
2022-10-09T02:06:09.645Z,99158.38
2022-10-09T02:08:38.878Z,99153.13
2022-10-09T02:11:06.686Z,99154.94
2022-10-09T02:13:35.562Z,99159.41
2022-10-09T02:16:20.910Z,99159.47
2022-10-09T02:19:11.215Z,99161.19
2022-10-09T02:21:42.165Z,99169.16
2022-10-09T02:24:17.029Z,99164.78
2022-10-09T02:26:43.796Z,99172.84
2022-10-09T02:29:12.556Z,99175.50
2022-10-09T02:31:42.303Z,99177.59
2022-10-09T02:34:11.890Z,99175.72
2022-10-09T02:36:39.994Z,99175.03
2022-10-09T02:39:07.780Z,99170.66
2022-10-09T02:41:35.449Z,99182.22
2022-10-09T02:44:02.901Z,99179.75
2022-10-09T02:46:30.435Z,99189.59
2022-10-09T02:48:57.675Z,99194.00
2022-10-09T02:51:25.549Z,99187.19
2022-10-09T02:53:54.051Z,99197.94
2022-10-09T02:56:22.368Z,99198.91
2022-10-09T02:58:49.343Z,99201.81
2022-10-09T03:01:16.342Z,99215.06
2022-10-09T03:03:43.659Z,99215.06
2022-10-09T03:06:13.893Z,99206.34
2022-10-09T03:08:43.904Z,99211.63
2022-10-09T03:11:12.289Z,99225.81
2022-10-09T03:13:39.866Z,99230.28
2022-10-09T03:16:18.458Z,99230.28
2022-10-09T03:18:46.513Z,99224.38
2022-10-09T03:21:24.955Z,99235.91
2022-10-09T03:23:53.552Z,99243.00
2022-10-09T03:26:27.641Z,99237.81
2022-10-09T03:28:55.581Z,99233.34
2022-10-09T03:31:50.574Z,99237.94
2022-10-09T03:34:12.325Z,99249.66
2022-10-09T03:36:39.711Z,99252.47
2022-10-09T03:39:06.477Z,99261.34
2022-10-09T03:41:33.340Z,99260.66
2022-10-09T03:44:00.388Z,99263.31
2022-10-09T03:46:27.236Z,99260.84
2022-10-09T03:48:54.030Z,99261.69
2022-10-09T03:51:21.258Z,99263.56
2022-10-09T03:53:47.999Z,99268.94
2022-10-09T03:56:14.757Z,99267.31
2022-10-09T03:58:41.751Z,99268.41
2022-10-09T04:01:08.686Z,99272.25
2022-10-09T04:03:35.633Z,99280.19
2022-10-09T04:06:02.648Z,99290.16
2022-10-09T04:08:29.425Z,99304.41
2022-10-09T04:10:58.081Z,99299.13
2022-10-09T04:13:25.187Z,99297.56
2022-10-09T04:15:55.900Z,99299.34
2022-10-09T04:18:23.282Z,99299.66
2022-10-09T04:20:55.249Z,99297.16
2022-10-09T04:23:25.204Z,99312.34
2022-10-09T04:25:54.952Z,99316.00
2022-10-09T04:28:23.562Z,99317.19
2022-10-09T04:30:51.764Z,99318.22
2022-10-09T04:33:19.203Z,99321.72
2022-10-09T04:35:50.630Z,99316.56
2022-10-09T04:38:17.450Z,99311.41
2022-10-09T04:40:44.455Z,99320.38
2022-10-09T04:43:11.224Z,99333.78
2022-10-09T04:45:41.420Z,99327.69
2022-10-09T04:48:08.433Z,99333.84
2022-10-09T04:50:38.912Z,99336.53
2022-10-09T04:53:05.710Z,99339.13
2022-10-09T04:55:32.760Z,99333.91
2022-10-09T04:57:59.605Z,99340.03
2022-10-09T05:00:26.387Z,99355.00
2022-10-09T05:02:53.397Z,99349.78
2022-10-09T05:05:20.118Z,99352.59
2022-10-09T05:07:46.863Z,99357.88
2022-10-09T05:10:13.894Z,99367.75
2022-10-09T05:12:40.717Z,99374.00
2022-10-09T05:15:07.758Z,99376.63
2022-10-09T05:17:34.782Z,99381.09
2022-10-09T05:20:01.622Z,99384.50
2022-10-09T05:22:28.367Z,99387.22
2022-10-09T05:24:55.310Z,99388.81
2022-10-09T05:27:22.198Z,99388.81
2022-10-09T05:29:48.956Z,99396.53
2022-10-09T05:32:15.983Z,99391.91
2022-10-09T05:34:42.793Z,99404.09
2022-10-09T05:37:09.665Z,99403.22
2022-10-09T05:39:38.360Z,99402.22
2022-10-09T05:42:05.419Z,99403.97
2022-10-09T05:44:32.359Z,99415.47
2022-10-09T05:46:59.291Z,99414.84
2022-10-09T05:49:26.027Z,99422.91
2022-10-09T05:51:54.146Z,99428.19
2022-10-09T05:54:21.202Z,99427.34
2022-10-09T05:56:48.051Z,99433.66
2022-10-09T05:59:19.952Z,99442.59
2022-10-09T06:01:50.513Z,99437.66
2022-10-09T06:04:20.766Z,99446.84
2022-10-09T06:06:48.819Z,99455.19
2022-10-09T06:09:18.431Z,99459.47
2022-10-09T06:11:45.888Z,99458.16
2022-10-09T06:14:13.550Z,99462.06
2022-10-09T06:16:42.464Z,99472.19
2022-10-09T06:19:12.293Z,99475.81
2022-10-09T06:21:39.406Z,99475.63
2022-10-09T06:24:07.248Z,99475.94
2022-10-09T06:26:34.746Z,99482.13
2022-10-09T06:29:02.695Z,99491.47
2022-10-09T06:31:32.983Z,99490.47
2022-10-09T06:34:01.047Z,99494.69
2022-10-09T06:36:30.714Z,99502.41
2022-10-09T06:39:00.523Z,99499.88
2022-10-09T06:41:28.722Z,99510.81
2022-10-09T06:43:58.295Z,99516.19
2022-10-09T06:46:34.669Z,99524.97
2022-10-09T06:49:02.424Z,99528.34
2022-10-09T06:51:30.198Z,99532.78
2022-10-09T06:53:59.809Z,99530.66
2022-10-09T06:56:29.112Z,99534.00
2022-10-09T06:58:56.475Z,99531.78
2022-10-09T07:01:27.011Z,99530.31
2022-10-09T07:03:56.838Z,99535.50
2022-10-09T07:06:26.318Z,99529.59
2022-10-09T07:08:59.721Z,99548.44
2022-10-09T07:11:32.469Z,99549.72
2022-10-09T07:14:02.097Z,99562.13
2022-10-09T07:16:38.828Z,99562.84
2022-10-09T07:19:11.352Z,99555.66
2022-10-09T07:21:41.436Z,99567.63
2022-10-09T07:24:08.554Z,99567.88
2022-10-09T07:26:37.990Z,99571.38
2022-10-09T07:29:07.397Z,99563.63
2022-10-09T07:31:34.165Z,99566.25
2022-10-09T07:34:01.462Z,99577.13
2022-10-09T07:36:28.545Z,99577.97
2022-10-09T07:38:57.264Z,99584.41
2022-10-09T07:41:26.274Z,99582.44
2022-10-09T07:43:53.559Z,99581.94
2022-10-09T07:46:22.417Z,99584.69
2022-10-09T07:48:49.341Z,99582.38
2022-10-09T07:51:27.697Z,99577.53
2022-10-09T07:53:54.707Z,99568.91
2022-10-09T07:56:24.827Z,99582.97
2022-10-09T07:58:54.106Z,99581.63
2022-10-09T08:01:21.575Z,99585.81
2022-10-09T08:03:49.285Z,99585.00
2022-10-09T08:06:17.280Z,99594.13
2022-10-09T08:08:45.038Z,99593.38
2022-10-09T08:11:15.030Z,99593.03
2022-10-09T08:13:43.047Z,99598.59
2022-10-09T08:16:10.946Z,99592.22
2022-10-09T08:18:38.150Z,99583.78
2022-10-09T08:21:08.289Z,99590.75
2022-10-09T08:23:35.721Z,99587.50
2022-10-09T08:26:03.639Z,99590.50
2022-10-09T08:28:30.769Z,99600.91
2022-10-09T08:30:57.597Z,99609.13
2022-10-09T08:33:26.040Z,99600.22
2022-10-09T08:35:54.426Z,99599.19
2022-10-09T08:38:45.561Z,99600.28
2022-10-09T08:41:39.509Z,99605.41
2022-10-09T08:44:16.985Z,99610.78
2022-10-09T08:47:02.766Z,99605.78
2022-10-09T08:49:32.331Z,99611.50
2022-10-09T08:52:14.144Z,99604.94
2022-10-09T08:54:41.350Z,99611.31
2022-10-09T08:57:14.497Z,99620.63
2022-10-09T08:59:41.802Z,99633.78
2022-10-09T09:02:17.434Z,99628.28
2022-10-09T09:05:02.970Z,99626.06
2022-10-09T09:07:46.024Z,99624.69
2022-10-09T09:10:34.303Z,99616.56
2022-10-09T09:13:26.946Z,99617.72
2022-10-09T09:16:04.626Z,99616.81
2022-10-09T09:18:53.625Z,99613.25
2022-10-09T09:21:42.551Z,99614.97
2022-10-09T09:24:38.434Z,99618.75
2022-10-09T09:27:14.070Z,99619.78
2022-10-09T09:29:47.065Z,99616.34
2022-10-09T09:32:33.774Z,99624.91
2022-10-09T09:35:46.914Z,99628.41
2022-10-09T09:38:14.772Z,99625.94
2022-10-09T09:40:46.825Z,99614.16
2022-10-09T09:43:25.469Z,99614.63
2022-10-09T09:45:54.648Z,99621.16
2022-10-09T09:48:41.032Z,99617.19
2022-10-09T09:51:27.954Z,99625.91
2022-10-09T09:54:15.226Z,99618.81
2022-10-09T09:59:36.265Z,99618.72
2022-10-09T10:02:26.286Z,99618.22
2022-10-09T10:04:55.458Z,99610.16
2022-10-09T10:07:38.970Z,99611.53
2022-10-09T10:10:25.859Z,99616.66
2022-10-09T10:12:59.542Z,99616.59
2022-10-09T10:15:31.844Z,99614.75
2022-10-09T10:18:08.335Z,99615.63
2022-10-09T10:21:03.373Z,99629.75
2022-10-09T10:23:33.852Z,99641.31
2022-10-09T10:26:05.583Z,99639.22
2022-10-09T10:28:43.670Z,99624.94
2022-10-09T10:31:19.561Z,99626.28
2022-10-09T10:33:53.337Z,99619.19
2022-10-09T10:36:20.154Z,99616.69
2022-10-09T10:38:57.411Z,99620.56
2022-10-09T10:41:42.559Z,99617.50
2022-10-09T10:44:50.158Z,99617.72
2022-10-09T10:47:24.214Z,99623.69
2022-10-09T10:49:51.242Z,99622.81
2022-10-09T10:52:30.311Z,99628.59
2022-10-09T10:55:34.724Z,99631.41
2022-10-09T10:58:24.639Z,99628.25
2022-10-09T11:01:13.897Z,99623.66
2022-10-09T11:03:52.870Z,99615.59
2022-10-09T11:06:26.138Z,99613.44
2022-10-09T11:09:06.000Z,99610.41
2022-10-09T11:11:46.226Z,99614.31
2022-10-09T11:14:20.546Z,99605.28
2022-10-09T11:16:58.552Z,99601.25
2022-10-09T11:19:51.173Z,99600.75
2022-10-09T11:22:30.070Z,99611.25
2022-10-09T11:25:15.112Z,99598.91
2022-10-09T11:27:51.979Z,99605.28
2022-10-09T11:30:19.189Z,99598.56
2022-10-09T11:33:17.271Z,99596.63
2022-10-09T11:35:57.985Z,99609.00
2022-10-09T11:38:39.379Z,99592.00
2022-10-09T11:41:07.649Z,99591.97
2022-10-09T11:43:43.787Z,99596.88
2022-10-09T11:46:19.733Z,99593.31
2022-10-09T11:49:16.283Z,99594.84
2022-10-09T11:51:55.116Z,99599.59
2022-10-09T11:54:24.126Z,99598.34
2022-10-09T11:56:54.374Z,99602.16
2022-10-09T11:59:30.879Z,99609.28
2022-10-09T12:02:00.277Z,99608.72
2022-10-09T12:07:36.742Z,99609.25
2022-10-09T12:10:21.337Z,99608.75
2022-10-09T12:13:30.143Z,99603.66
2022-10-09T12:15:59.116Z,99609.25
2022-10-09T12:18:31.281Z,99616.84
2022-10-09T12:21:00.490Z,99613.69
2022-10-09T12:23:32.310Z,99615.41
2022-10-09T12:26:01.716Z,99608.25
2022-10-09T12:28:39.089Z,99601.47
2022-10-09T12:31:18.451Z,99601.47
2022-10-09T12:33:51.623Z,99600.84
2022-10-09T12:36:29.901Z,99594.19
2022-10-09T12:38:57.230Z,99591.91
2022-10-09T12:41:29.522Z,99591.56
2022-10-09T12:43:57.706Z,99590.13
2022-10-09T12:46:37.160Z,99589.50
2022-10-09T12:49:14.986Z,99593.75
2022-10-09T12:51:42.159Z,99592.63
2022-10-09T12:54:10.131Z,99596.13
2022-10-09T12:56:38.828Z,99592.16
2022-10-09T12:59:11.867Z,99594.97
2022-10-09T13:01:40.464Z,99589.72
2022-10-09T13:04:10.975Z,99592.66
2022-10-09T13:06:46.322Z,99599.97
2022-10-09T13:09:27.998Z,99590.41
2022-10-09T13:12:19.676Z,99590.66
2022-10-09T13:14:59.742Z,99594.88
2022-10-09T13:17:38.831Z,99590.78
2022-10-09T13:20:14.726Z,99601.97
2022-10-09T13:22:52.881Z,99602.53
2022-10-09T13:25:20.090Z,99594.44
2022-10-09T13:27:47.184Z,99602.59
2022-10-09T13:30:14.125Z,99610.28
2022-10-09T13:32:41.096Z,99602.63
2022-10-09T13:35:08.234Z,99612.53
2022-10-09T13:37:35.231Z,99604.47
2022-10-09T13:40:02.338Z,99602.56
2022-10-09T13:42:38.577Z,99596.78
2022-10-09T13:45:06.312Z,99605.97
2022-10-09T13:47:33.303Z,99605.78
2022-10-09T13:50:00.151Z,99608.59
2022-10-09T13:52:27.193Z,99609.50
2022-10-09T13:54:53.972Z,99603.19
2022-10-09T13:57:20.821Z,99601.06
2022-10-09T13:59:47.804Z,99608.19
2022-10-09T14:02:14.716Z,99603.59
2022-10-09T14:04:41.742Z,99603.84
2022-10-09T14:07:09.104Z,99605.63
2022-10-09T14:09:36.063Z,99611.84
2022-10-09T14:12:02.953Z,99613.16
2022-10-09T14:14:30.023Z,99618.25
2022-10-09T14:16:56.870Z,99611.91
2022-10-09T14:19:27.988Z,99609.44
2022-10-09T14:21:56.450Z,99607.53
2022-10-09T14:24:24.381Z,99611.38
2022-10-09T14:26:51.917Z,99616.28
2022-10-09T14:29:19.597Z,99624.88
2022-10-09T14:31:46.502Z,99620.59
2022-10-09T14:34:14.791Z,99620.47
2022-10-09T14:36:42.390Z,99626.69
2022-10-09T14:39:09.320Z,99624.06
2022-10-09T14:41:37.975Z,99624.91
2022-10-09T14:44:05.839Z,99629.47
2022-10-09T14:46:34.087Z,99624.03
2022-10-09T14:49:07.400Z,99627.59
2022-10-09T14:51:40.382Z,99624.03
2022-10-09T14:54:08.199Z,99632.59
2022-10-09T14:56:36.272Z,99625.19
2022-10-09T14:59:05.864Z,99618.78
2022-10-09T15:01:34.142Z,99629.13
2022-10-09T15:04:06.125Z,99635.03
2022-10-09T15:06:33.815Z,99627.94
2022-10-09T15:09:05.559Z,99632.06
2022-10-09T15:11:34.674Z,99632.72
2022-10-09T15:14:02.019Z,99626.50
2022-10-09T15:16:28.827Z,99633.50
2022-10-09T15:18:56.296Z,99641.47
2022-10-09T15:21:28.690Z,99642.97
2022-10-09T15:23:57.360Z,99632.34
2022-10-09T15:26:25.640Z,99644.72
2022-10-09T15:28:52.585Z,99647.69
2022-10-09T15:31:40.517Z,99650.22
2022-10-09T15:34:09.858Z,99649.69
2022-10-09T15:36:38.517Z,99657.22
2022-10-09T15:39:07.540Z,99653.28
2022-10-09T15:41:37.491Z,99661.06
2022-10-09T15:44:06.740Z,99670.44
2022-10-09T15:46:34.138Z,99670.13
2022-10-09T15:49:00.891Z,99667.22
2022-10-09T15:51:29.376Z,99667.75
2022-10-09T15:53:58.881Z,99666.47
2022-10-09T15:56:25.566Z,99664.41
2022-10-09T15:58:54.554Z,99661.97
2022-10-09T16:01:21.906Z,99670.22
2022-10-09T16:03:49.134Z,99669.63
2022-10-09T16:06:19.359Z,99672.59
2022-10-09T16:08:47.369Z,99673.97
2022-10-09T16:11:17.972Z,99677.06
2022-10-09T16:13:48.183Z,99687.78
2022-10-09T16:16:18.964Z,99681.00
2022-10-09T16:18:46.530Z,99691.81
2022-10-09T16:21:16.643Z,99692.00
2022-10-09T16:23:44.187Z,99685.22
2022-10-09T16:26:13.758Z,99691.50
2022-10-09T16:28:40.905Z,99691.78
2022-10-09T16:31:07.728Z,99698.16
2022-10-09T16:33:34.575Z,99700.19
2022-10-09T16:36:11.869Z,99700.53
2022-10-09T16:38:39.038Z,99705.13
2022-10-09T16:41:17.832Z,99699.31
2022-10-09T16:43:46.646Z,99703.25
2022-10-09T16:46:13.773Z,99698.34
2022-10-09T16:48:40.849Z,99709.19
2022-10-09T16:51:12.635Z,99710.41
2022-10-09T16:53:40.507Z,99709.13
2022-10-09T16:56:15.275Z,99716.59
2022-10-09T16:58:43.475Z,99719.59
2022-10-09T17:01:11.069Z,99725.25
2022-10-09T17:03:42.531Z,99727.28
2022-10-09T17:06:11.732Z,99725.94
2022-10-09T17:08:39.483Z,99726.38
2022-10-09T17:11:08.777Z,99725.00
2022-10-09T17:13:36.693Z,99731.28
2022-10-09T17:16:15.668Z,99723.66
2022-10-09T17:18:45.345Z,99724.84
2022-10-09T17:21:13.283Z,99728.53
2022-10-09T17:23:40.419Z,99727.06
2022-10-09T17:26:13.687Z,99733.38
2022-10-09T17:28:42.120Z,99733.50
2022-10-09T17:31:11.243Z,99736.28
2022-10-09T17:33:46.063Z,99740.81
2022-10-09T17:36:16.397Z,99737.47
2022-10-09T17:38:44.036Z,99742.03
2022-10-09T17:41:13.218Z,99737.81
2022-10-09T17:43:40.337Z,99730.94
2022-10-09T17:46:07.601Z,99743.28
2022-10-09T17:48:35.769Z,99746.94
2022-10-09T17:51:04.454Z,99752.38
2022-10-09T17:53:31.968Z,99747.19
2022-10-09T17:56:03.858Z,99742.13
2022-10-09T17:58:31.061Z,99744.81
2022-10-09T18:00:58.004Z,99750.13
2022-10-09T18:03:25.944Z,99748.47
2022-10-09T18:05:52.910Z,99755.53
2022-10-09T18:08:20.005Z,99754.75
2022-10-09T18:10:47.105Z,99759.22
2022-10-09T18:13:14.340Z,99762.78
2022-10-09T18:15:43.317Z,99756.66
2022-10-09T18:18:11.166Z,99761.09
2022-10-09T18:20:39.951Z,99769.03
2022-10-09T18:23:08.031Z,99767.34
2022-10-09T18:25:40.127Z,99770.06
2022-10-09T18:28:07.219Z,99773.63
2022-10-09T18:30:34.322Z,99771.09
2022-10-09T18:33:01.282Z,99777.25
2022-10-09T18:35:30.419Z,99788.66
2022-10-09T18:37:57.443Z,99797.41
2022-10-09T18:40:24.260Z,99795.66
2022-10-09T18:42:52.143Z,99807.06
2022-10-09T18:45:19.499Z,99806.25
2022-10-09T18:47:46.834Z,99802.00
2022-10-09T18:50:15.368Z,99807.28
2022-10-09T18:52:43.643Z,99813.44
2022-10-09T18:55:12.863Z,99816.13
2022-10-09T18:57:41.452Z,99817.00
2022-10-09T19:00:09.453Z,99831.03
2022-10-09T19:02:36.553Z,99835.41
2022-10-09T19:05:04.110Z,99835.47
2022-10-09T19:07:31.266Z,99834.63
2022-10-09T19:09:58.126Z,99836.38
2022-10-09T19:12:26.251Z,99835.63
2022-10-09T19:14:53.062Z,99842.69
2022-10-09T19:17:20.066Z,99841.00
2022-10-09T19:19:46.896Z,99851.47
2022-10-09T19:22:16.609Z,99857.66
2022-10-09T19:24:44.376Z,99852.47
2022-10-09T19:27:11.453Z,99862.13
2022-10-09T19:29:38.381Z,99855.19
2022-10-09T19:32:05.459Z,99859.59
2022-10-09T19:34:32.238Z,99852.63
2022-10-09T19:36:59.336Z,99862.25
2022-10-09T19:39:26.324Z,99864.00
2022-10-09T19:41:53.727Z,99867.56
2022-10-09T19:44:21.577Z,99868.44
2022-10-09T19:46:48.740Z,99865.88
2022-10-09T19:49:15.895Z,99869.38
2022-10-09T19:51:42.990Z,99865.94
2022-10-09T19:54:10.214Z,99868.56
2022-10-09T19:56:37.861Z,99862.50
2022-10-09T19:59:07.087Z,99873.84
2022-10-09T20:01:35.968Z,99873.03
2022-10-09T20:04:07.791Z,99872.19
2022-10-09T20:06:37.805Z,99872.22
2022-10-09T20:09:06.302Z,99871.41
2022-10-09T20:11:34.871Z,99870.53
2022-10-09T20:14:02.131Z,99874.03
2022-10-09T20:16:32.173Z,99869.72
2022-10-09T20:19:04.054Z,99868.88
2022-10-09T20:21:32.976Z,99869.72
2022-10-09T20:24:01.384Z,99856.69
2022-10-09T20:26:29.860Z,99864.53
2022-10-09T20:28:57.344Z,99866.31
2022-10-09T20:31:26.329Z,99864.59
2022-10-09T20:33:53.816Z,99866.34
2022-10-09T20:36:27.867Z,99872.47
2022-10-09T20:38:56.972Z,99869.88
2022-10-09T20:41:24.951Z,99875.13
2022-10-09T20:43:53.481Z,99875.13
2022-10-09T20:46:21.398Z,99869.06
2022-10-09T20:48:48.573Z,99862.13
2022-10-09T20:51:16.565Z,99873.44
2022-10-09T20:53:44.649Z,99873.44
2022-10-09T20:56:14.710Z,99874.28
2022-10-09T20:58:41.918Z,99867.38
2022-10-09T21:01:11.027Z,99870.81
2022-10-09T21:03:39.223Z,99868.22
2022-10-09T21:06:08.643Z,99869.13
2022-10-09T21:08:36.193Z,99873.47
2022-10-09T21:11:08.484Z,99874.38
2022-10-09T21:13:36.294Z,99865.66
2022-10-09T21:16:12.432Z,99869.16
2022-10-09T21:18:39.843Z,99867.41
2022-10-09T21:21:09.983Z,99874.38
2022-10-09T21:23:37.335Z,99859.56
2022-10-09T21:26:04.263Z,99862.19
2022-10-09T21:28:31.961Z,99865.66
2022-10-09T21:30:58.730Z,99868.28
2022-10-09T21:33:25.781Z,99863.94
2022-10-09T21:35:55.417Z,99857.84
2022-10-09T21:38:23.810Z,99867.41
2022-10-09T21:40:50.880Z,99871.75
2022-10-09T21:43:18.673Z,99870.88
2022-10-09T21:45:49.516Z,99873.47
2022-10-09T21:48:17.063Z,99860.47
2022-10-09T21:50:45.085Z,99861.31
2022-10-09T21:53:12.903Z,99869.13
2022-10-09T21:55:39.867Z,99870.88
2022-10-09T21:58:07.225Z,99875.22
2022-10-09T22:00:34.303Z,99875.22
2022-10-09T22:03:01.102Z,99873.41
2022-10-09T22:05:28.021Z,99873.41
2022-10-09T22:07:55.065Z,99872.53
2022-10-09T22:10:21.899Z,99880.34
2022-10-09T22:12:49.039Z,99874.25
2022-10-09T22:15:16.294Z,99874.28
2022-10-09T22:17:43.053Z,99879.50
2022-10-09T22:20:10.141Z,99872.53
2022-10-09T22:22:36.966Z,99875.19
2022-10-09T22:25:04.602Z,99877.81
2022-10-09T22:27:31.370Z,99880.44
2022-10-09T22:29:58.380Z,99878.72
2022-10-09T22:32:25.170Z,99881.34
2022-10-09T22:34:52.306Z,99881.38
2022-10-09T22:37:19.150Z,99879.59
2022-10-09T22:39:46.296Z,99881.38
2022-10-09T22:42:13.217Z,99883.09
2022-10-09T22:44:40.223Z,99886.56
2022-10-09T22:47:06.991Z,99888.31
2022-10-09T22:49:34.096Z,99889.16
2022-10-09T22:52:00.877Z,99883.09
2022-10-09T22:54:27.913Z,99882.25
2022-10-09T22:56:54.826Z,99888.28
2022-10-09T22:59:21.892Z,99892.66
2022-10-09T23:01:53.450Z,99877.88
2022-10-09T23:04:22.082Z,99893.53
2022-10-09T23:06:55.519Z,99896.13
2022-10-09T23:09:26.287Z,99895.25
2022-10-09T23:11:53.415Z,99894.38
2022-10-09T23:14:20.508Z,99895.25
2022-10-09T23:16:47.642Z,99897.84
2022-10-09T23:19:15.290Z,99900.47
2022-10-09T23:21:43.308Z,99895.25
2022-10-09T23:24:12.577Z,99890.88
2022-10-09T23:26:39.315Z,99902.19
2022-10-09T23:29:14.512Z,99895.25
2022-10-09T23:31:41.624Z,99906.53
2022-10-09T23:34:08.668Z,99906.53
2022-10-09T23:36:35.642Z,99904.78
2022-10-09T23:39:04.338Z,99906.50
2022-10-09T23:41:31.108Z,99904.75
2022-10-09T23:43:58.287Z,99909.94
2022-10-09T23:46:28.651Z,99903.88
2022-10-09T23:48:56.127Z,99902.13
2022-10-09T23:51:24.599Z,99905.56
2022-10-09T23:53:51.621Z,99900.34
2022-10-09T23:56:24.531Z,99900.34
2022-10-09T23:58:52.739Z,99900.31
